createdAt,value
2023-04-13T00:00:43.021Z,71.69
2023-04-13T00:03:12.788Z,72.01
2023-04-13T00:05:39.889Z,72.55
2023-04-13T00:08:07.320Z,71.78
2023-04-13T00:10:36.305Z,72.29
2023-04-13T00:13:07.695Z,72.21
2023-04-13T00:15:36.710Z,73.57
2023-04-13T00:18:03.654Z,73.52
2023-04-13T00:20:30.180Z,73.30
2023-04-13T00:22:57.763Z,73.64
2023-04-13T00:25:24.220Z,73.53
2023-04-13T00:27:53.005Z,73.73
2023-04-13T00:30:20.208Z,73.86
2023-04-13T00:32:46.872Z,73.88
2023-04-13T00:35:18.751Z,74.05
2023-04-13T00:37:48.687Z,73.80
2023-04-13T00:40:18.310Z,74.08
2023-04-13T00:42:49.772Z,73.95
2023-04-13T00:45:18.200Z,73.80
2023-04-13T00:47:46.847Z,74.11
2023-04-13T00:50:14.228Z,73.89
2023-04-13T00:52:42.955Z,73.67
2023-04-13T00:55:09.609Z,74.66
2023-04-13T00:57:41.967Z,74.44
2023-04-13T01:00:09.734Z,74.32
2023-04-13T01:02:41.911Z,73.67
2023-04-13T01:05:16.379Z,73.61
2023-04-13T01:08:08.977Z,73.19
2023-04-13T01:10:44.740Z,73.70
2023-04-13T01:13:19.597Z,73.52
2023-04-13T01:15:55.256Z,73.83
2023-04-13T01:18:22.717Z,73.64
2023-04-13T01:20:50.455Z,74.21
2023-04-13T01:23:32.013Z,74.59
2023-04-13T01:26:02.353Z,74.71
2023-04-13T01:28:30.129Z,73.97
2023-04-13T01:30:57.669Z,75.03
2023-04-13T01:33:25.519Z,75.11
2023-04-13T01:35:52.365Z,75.12
2023-04-13T01:38:24.607Z,75.30
2023-04-13T01:40:51.801Z,75.21
2023-04-13T01:43:21.788Z,75.87
2023-04-13T01:45:53.782Z,75.74
2023-04-13T01:48:34.394Z,76.19
2023-04-13T01:51:08.075Z,76.54
2023-04-13T01:53:42.100Z,76.95
2023-04-13T01:56:09.217Z,77.36
2023-04-13T01:58:36.432Z,77.35
2023-04-13T02:01:07.571Z,77.09
2023-04-13T02:03:36.125Z,77.50
2023-04-13T02:06:03.008Z,78.01
2023-04-13T02:08:32.909Z,78.27
2023-04-13T02:11:00.948Z,77.99
2023-04-13T02:13:27.515Z,78.89
2023-04-13T02:15:54.730Z,78.21
2023-04-13T02:18:23.724Z,78.39
2023-04-13T02:21:12.216Z,78.37
2023-04-13T02:23:40.534Z,78.83
2023-04-13T02:26:14.582Z,79.29
2023-04-13T02:28:41.831Z,78.20
2023-04-13T02:31:08.461Z,78.33
2023-04-13T02:33:36.334Z,78.06
2023-04-13T02:36:03.921Z,78.33
2023-04-13T02:38:31.890Z,78.30
2023-04-13T02:40:59.306Z,77.83
2023-04-13T02:43:33.260Z,78.42
2023-04-13T02:45:59.908Z,78.37
2023-04-13T02:48:26.930Z,79.05
2023-04-13T02:50:54.130Z,78.76
2023-04-13T02:53:22.146Z,79.27
2023-04-13T02:55:50.352Z,78.52
2023-04-13T02:58:17.029Z,78.86
2023-04-13T03:00:44.541Z,78.87
2023-04-13T03:03:11.172Z,78.35
2023-04-13T03:05:38.701Z,78.34
2023-04-13T03:08:21.508Z,78.80
2023-04-13T03:10:48.001Z,78.85
2023-04-13T03:13:14.524Z,78.73
2023-04-13T03:15:42.122Z,78.57
2023-04-13T03:18:08.585Z,79.10
2023-04-13T03:20:35.082Z,78.77
2023-04-13T03:23:01.954Z,78.87
2023-04-13T03:25:28.571Z,78.75
2023-04-13T03:27:54.967Z,78.85
2023-04-13T03:30:21.634Z,78.31
2023-04-13T03:32:48.333Z,78.46
2023-04-13T03:35:16.334Z,77.95
2023-04-13T03:37:44.753Z,77.51
2023-04-13T03:40:11.542Z,77.39
2023-04-13T03:42:38.387Z,76.76
2023-04-13T03:45:06.672Z,74.50
2023-04-13T03:47:34.323Z,73.30
2023-04-13T03:50:00.876Z,69.65
2023-04-13T03:52:27.478Z,70.63
2023-04-13T03:54:53.985Z,71.89
2023-04-13T03:57:22.538Z,71.01
2023-04-13T03:59:49.028Z,69.92
2023-04-13T04:02:15.580Z,70.53
2023-04-13T04:04:42.096Z,71.18
2023-04-13T04:07:09.034Z,70.49
2023-04-13T04:09:35.388Z,70.11
2023-04-13T04:12:02.235Z,70.28
2023-04-13T04:14:28.667Z,70.65
2023-04-13T04:16:55.105Z,71.35
2023-04-13T04:19:21.829Z,71.29
2023-04-13T04:21:49.745Z,70.85
2023-04-13T04:24:20.592Z,70.87
2023-04-13T04:26:55.984Z,70.96
2023-04-13T04:29:22.745Z,70.68
2023-04-13T04:31:53.247Z,70.09
2023-04-13T04:34:20.226Z,70.68
2023-04-13T04:36:50.318Z,69.92
2023-04-13T04:39:21.944Z,70.08
2023-04-13T04:41:54.412Z,70.29
2023-04-13T04:44:25.205Z,70.10
2023-04-13T04:46:52.587Z,69.82
2023-04-13T04:49:21.772Z,70.26
2023-04-13T04:51:49.101Z,69.24
2023-04-13T04:54:16.943Z,70.85
2023-04-13T04:56:43.373Z,70.09
2023-04-13T04:59:10.444Z,69.60
2023-04-13T05:01:37.051Z,70.57
2023-04-13T05:04:03.893Z,71.74
2023-04-13T05:06:36.695Z,70.99
2023-04-13T05:09:07.252Z,70.52
2023-04-13T05:11:33.950Z,71.60
2023-04-13T05:14:01.200Z,70.88
2023-04-13T05:16:30.681Z,71.40
2023-04-13T05:18:57.654Z,69.75
2023-04-13T05:21:24.367Z,69.73
2023-04-13T05:23:50.951Z,69.42
2023-04-13T05:26:17.500Z,69.99
2023-04-13T05:28:43.884Z,70.10
2023-04-13T05:31:11.181Z,70.09
2023-04-13T05:33:38.141Z,70.52
2023-04-13T05:36:05.216Z,69.94
2023-04-13T05:38:31.696Z,70.02
2023-04-13T05:40:59.568Z,69.90
2023-04-13T05:43:26.682Z,69.71
2023-04-13T05:45:53.171Z,67.67
2023-04-13T05:48:19.631Z,68.46
2023-04-13T05:50:46.260Z,67.95
2023-04-13T05:53:12.780Z,67.63
2023-04-13T05:55:40.531Z,66.84
2023-04-13T05:58:06.886Z,66.04
2023-04-13T06:00:33.234Z,65.70
2023-04-13T06:03:01.667Z,65.73
2023-04-13T06:05:29.696Z,64.70
2023-04-13T06:07:56.321Z,64.32
2023-04-13T06:10:23.038Z,64.57
2023-04-13T06:12:50.527Z,64.52
2023-04-13T06:15:17.209Z,64.40
2023-04-13T06:17:43.662Z,63.90
2023-04-13T06:20:11.023Z,63.09
2023-04-13T06:22:37.577Z,63.16
2023-04-13T06:25:04.294Z,63.68
2023-04-13T06:27:33.630Z,62.66
2023-04-13T06:30:00.164Z,62.98
2023-04-13T06:32:29.469Z,63.75
2023-04-13T06:34:55.908Z,63.21
2023-04-13T06:37:23.321Z,62.20
2023-04-13T06:39:49.863Z,61.92
2023-04-13T06:42:16.561Z,62.27
2023-04-13T06:44:43.060Z,62.64
2023-04-13T06:47:10.102Z,62.61
2023-04-13T06:49:36.891Z,62.67
2023-04-13T06:52:03.290Z,62.56
2023-04-13T06:54:30.454Z,62.73
2023-04-13T06:56:57.112Z,62.15
2023-04-13T06:59:23.708Z,61.50
2023-04-13T07:01:50.975Z,61.06
2023-04-13T07:04:18.469Z,61.53
2023-04-13T07:06:45.694Z,61.05
2023-04-13T07:09:12.110Z,60.02
2023-04-13T07:11:38.468Z,59.49
2023-04-13T07:14:05.980Z,59.91
2023-04-13T07:16:34.449Z,59.12
2023-04-13T07:19:04.145Z,59.08
2023-04-13T07:21:33.075Z,58.49
2023-04-13T07:23:59.551Z,58.03
2023-04-13T07:26:27.216Z,57.24
2023-04-13T07:28:53.742Z,56.09
2023-04-13T07:31:20.168Z,56.59
2023-04-13T07:33:47.283Z,57.76
2023-04-13T07:36:13.669Z,57.82
2023-04-13T07:38:40.226Z,57.88
2023-04-13T07:41:07.333Z,59.53
2023-04-13T07:43:35.340Z,59.14
2023-04-13T07:46:08.678Z,58.39
2023-04-13T07:48:36.074Z,58.26
2023-04-13T07:51:03.295Z,58.33
2023-04-13T07:53:29.707Z,58.25
2023-04-13T07:55:56.204Z,57.53
2023-04-13T07:58:22.581Z,56.12
2023-04-13T08:00:49.171Z,55.12
2023-04-13T08:03:16.559Z,52.17
2023-04-13T08:05:45.586Z,51.50
2023-04-13T08:08:13.439Z,50.94
2023-04-13T08:10:39.841Z,48.99
2023-04-13T08:13:07.880Z,49.26
2023-04-13T08:15:34.393Z,50.55
2023-04-13T08:18:00.937Z,50.66
2023-04-13T08:20:29.595Z,50.64
2023-04-13T08:22:56.085Z,52.10
2023-04-13T08:25:22.539Z,53.05
2023-04-13T08:27:50.535Z,52.93
2023-04-13T08:30:17.288Z,53.43
2023-04-13T08:32:44.020Z,54.08
2023-04-13T08:35:11.627Z,53.91
2023-04-13T08:37:39.520Z,52.70
2023-04-13T08:40:07.793Z,53.84
2023-04-13T08:42:34.803Z,52.12
2023-04-13T08:45:09.926Z,50.89
2023-04-13T08:47:36.644Z,52.29
2023-04-13T08:50:03.266Z,51.66
2023-04-13T08:52:29.940Z,51.69
2023-04-13T08:54:58.357Z,50.27
2023-04-13T08:57:24.847Z,50.09
2023-04-13T08:59:55.184Z,50.58
2023-04-13T09:02:26.643Z,49.70
2023-04-13T09:04:54.614Z,48.85
2023-04-13T09:07:29.095Z,49.16
2023-04-13T09:10:00.432Z,49.21
2023-04-13T09:12:28.572Z,49.28
2023-04-13T09:14:55.620Z,48.49
2023-04-13T09:17:25.848Z,48.76
2023-04-13T09:19:53.194Z,48.34
2023-04-13T09:22:19.943Z,49.25
2023-04-13T09:24:46.373Z,49.83
2023-04-13T09:27:21.067Z,49.15
2023-04-13T09:29:51.657Z,49.39
2023-04-13T09:32:22.868Z,48.24
2023-04-13T09:35:22.562Z,47.92
2023-04-13T09:37:54.487Z,48.89
2023-04-13T09:40:21.287Z,49.90
2023-04-13T09:42:59.839Z,49.52
2023-04-13T09:45:44.372Z,49.25
2023-04-13T09:48:21.931Z,50.52
2023-04-13T09:51:06.804Z,50.17
2023-04-13T09:53:46.336Z,50.82
2023-04-13T09:56:12.991Z,50.48
2023-04-13T09:58:46.566Z,49.93
2023-04-13T10:01:15.412Z,49.10
2023-04-13T10:03:42.485Z,50.03
2023-04-13T10:06:09.395Z,49.16
2023-04-13T10:08:41.305Z,47.96
2023-04-13T10:11:11.844Z,48.43
2023-04-13T10:13:45.655Z,47.99
2023-04-13T10:16:36.979Z,47.66
2023-04-13T10:19:15.570Z,46.87
2023-04-13T10:21:48.063Z,45.99
2023-04-13T10:24:15.228Z,44.18
2023-04-13T10:26:43.907Z,43.66
2023-04-13T10:29:11.646Z,42.62
2023-04-13T10:31:39.794Z,42.89
2023-04-13T10:34:07.574Z,41.43
2023-04-13T10:36:42.186Z,41.37
2023-04-13T10:39:11.763Z,39.67
2023-04-13T10:41:38.597Z,39.38
2023-04-13T10:44:08.562Z,36.73
2023-04-13T10:46:36.199Z,35.52
2023-04-13T10:49:04.118Z,34.58
2023-04-13T10:51:41.094Z,31.90
2023-04-13T10:54:08.380Z,31.03
2023-04-13T10:56:35.164Z,32.49
2023-04-13T10:59:04.466Z,36.30
2023-04-13T11:01:31.948Z,38.67
2023-04-13T11:04:06.781Z,37.54
2023-04-13T11:06:39.038Z,36.25
2023-04-13T11:09:07.036Z,37.55
2023-04-13T11:11:36.372Z,37.47
2023-04-13T11:14:03.655Z,34.39
2023-04-13T11:16:30.238Z,33.96
2023-04-13T11:19:04.213Z,32.33
2023-04-13T11:21:35.465Z,32.64
2023-04-13T11:24:02.106Z,31.56
2023-04-13T11:26:37.275Z,32.01
2023-04-13T11:29:04.637Z,33.50
2023-04-13T11:31:39.180Z,35.92
2023-04-13T11:34:06.919Z,34.20
2023-04-13T11:36:33.650Z,30.77
2023-04-13T11:39:01.454Z,30.60
2023-04-13T11:41:28.955Z,33.77
2023-04-13T11:43:55.411Z,32.29
2023-04-13T11:46:25.035Z,34.24
2023-04-13T11:48:54.867Z,34.50
2023-04-13T11:51:22.185Z,34.18
2023-04-13T11:53:51.298Z,34.35
2023-04-13T11:56:18.218Z,34.69
2023-04-13T11:58:44.973Z,31.81
2023-04-13T12:01:20.313Z,32.39
2023-04-13T12:04:01.421Z,35.15
2023-04-13T12:06:35.168Z,34.46
2023-04-13T12:09:10.130Z,35.22
2023-04-13T12:11:44.194Z,35.54
2023-04-13T12:19:26.253Z,33.47
2023-04-13T12:21:56.449Z,33.99
2023-04-13T12:24:37.636Z,33.88
2023-04-13T12:29:41.367Z,36.05
2023-04-13T12:32:14.429Z,36.76
2023-04-13T12:34:41.972Z,35.41
2023-04-13T12:37:09.326Z,36.42
2023-04-13T12:39:35.774Z,35.72
2023-04-13T12:42:02.558Z,32.88
2023-04-13T12:44:30.082Z,34.12
2023-04-13T12:46:57.730Z,32.66
2023-04-13T12:49:24.329Z,33.66
2023-04-13T12:51:50.812Z,33.92
2023-04-13T12:54:18.002Z,35.08
2023-04-13T12:56:44.366Z,34.51
2023-04-13T12:59:11.139Z,36.84
2023-04-13T13:01:38.021Z,35.43
2023-04-13T13:04:05.084Z,36.62
2023-04-13T13:06:32.797Z,32.75
2023-04-13T13:08:59.728Z,33.07
2023-04-13T13:11:27.520Z,33.16
2023-04-13T13:13:54.060Z,32.69
2023-04-13T13:16:21.349Z,33.67
2023-04-13T13:18:51.285Z,33.50
2023-04-13T13:21:19.285Z,33.33
2023-04-13T13:23:46.241Z,34.26
2023-04-13T13:26:23.935Z,34.84
2023-04-13T13:28:52.571Z,33.72
2023-04-13T13:31:19.485Z,34.05
2023-04-13T13:33:46.341Z,33.70
2023-04-13T13:36:14.110Z,33.25
2023-04-13T13:38:42.484Z,33.12
2023-04-13T13:41:08.992Z,32.35
2023-04-13T13:43:35.568Z,33.23
2023-04-13T13:46:02.234Z,33.95
2023-04-13T13:48:28.618Z,34.00
2023-04-13T13:50:55.914Z,35.56
2023-04-13T13:53:22.394Z,33.57
2023-04-13T13:55:50.743Z,34.02
2023-04-13T13:58:17.210Z,34.27
2023-04-13T14:00:43.897Z,33.89
2023-04-13T14:03:10.711Z,33.82
2023-04-13T14:05:37.650Z,33.16
2023-04-13T14:08:04.219Z,32.21
2023-04-13T14:10:30.668Z,33.84
2023-04-13T14:12:59.039Z,35.22
2023-04-13T14:15:25.637Z,33.86
2023-04-13T14:18:08.453Z,34.05
2023-04-13T14:20:38.926Z,34.96
2023-04-13T14:23:06.002Z,34.62
2023-04-13T14:25:32.733Z,33.27
2023-04-13T14:27:59.248Z,32.57
2023-04-13T14:30:27.902Z,34.08
2023-04-13T14:32:54.721Z,34.47
2023-04-13T14:35:21.409Z,34.25
2023-04-13T14:37:47.727Z,35.17
2023-04-13T14:40:16.975Z,35.49
2023-04-13T14:42:43.619Z,34.91
2023-04-13T14:45:13.307Z,35.33
2023-04-13T14:47:40.138Z,34.23
2023-04-13T14:50:08.290Z,34.99
2023-04-13T14:52:34.680Z,34.05
2023-04-13T14:55:01.497Z,34.53
2023-04-13T14:57:28.716Z,36.61
2023-04-13T14:59:56.307Z,35.92
2023-04-13T15:02:23.508Z,35.87
2023-04-13T15:04:50.359Z,35.17
2023-04-13T15:07:18.840Z,35.24
2023-04-13T15:09:45.473Z,36.63
2023-04-13T15:12:13.502Z,37.42
2023-04-13T15:14:40.614Z,36.24
2023-04-13T15:17:08.391Z,36.70
2023-04-13T15:19:34.793Z,36.54
2023-04-13T15:22:01.300Z,37.90
2023-04-13T15:24:27.774Z,37.18
2023-04-13T15:26:54.438Z,37.57
2023-04-13T15:29:21.304Z,39.48
2023-04-13T15:31:47.758Z,38.86
2023-04-13T15:34:14.185Z,38.89
2023-04-13T15:36:40.698Z,38.23
2023-04-13T15:39:07.350Z,39.34
2023-04-13T15:41:33.840Z,40.12
2023-04-13T15:44:00.771Z,38.11
2023-04-13T15:46:28.370Z,38.63
2023-04-13T15:48:56.023Z,38.81
2023-04-13T15:51:23.188Z,39.24
2023-04-13T15:53:49.590Z,38.34
2023-04-13T15:56:16.474Z,39.95
2023-04-13T15:58:43.001Z,39.44
2023-04-13T16:01:11.137Z,38.24
2023-04-13T16:03:38.305Z,38.25
2023-04-13T16:06:04.947Z,38.67
2023-04-13T16:08:32.429Z,39.33
2023-04-13T16:11:00.563Z,39.75
2023-04-13T16:13:45.067Z,40.02
2023-04-13T16:16:15.046Z,39.31
2023-04-13T16:18:41.964Z,39.37
2023-04-13T16:21:10.879Z,38.32
2023-04-13T16:23:37.476Z,40.21
2023-04-13T16:26:04.740Z,40.79
2023-04-13T16:28:31.204Z,39.97
2023-04-13T16:30:58.062Z,40.64
2023-04-13T16:33:24.525Z,41.52
2023-04-13T16:35:51.359Z,41.68
2023-04-13T16:38:17.936Z,41.65
2023-04-13T16:40:44.301Z,41.89
2023-04-13T16:43:10.852Z,42.74
2023-04-13T16:45:37.717Z,42.80
2023-04-13T16:48:05.022Z,43.17
2023-04-13T16:50:32.322Z,43.34
2023-04-13T16:52:59.203Z,44.77
2023-04-13T16:55:28.197Z,44.25
2023-04-13T16:57:55.122Z,45.06
2023-04-13T17:00:23.587Z,44.73
2023-04-13T17:02:50.276Z,44.79
2023-04-13T17:05:17.009Z,45.47
2023-04-13T17:07:47.507Z,45.77
2023-04-13T17:10:17.324Z,45.50
2023-04-13T17:12:48.186Z,45.37
2023-04-13T17:15:23.943Z,45.94
2023-04-13T17:17:57.329Z,46.63
2023-04-13T17:20:23.790Z,45.97
2023-04-13T17:22:50.522Z,46.54
2023-04-13T17:25:17.732Z,46.04
2023-04-13T17:27:44.177Z,46.77
2023-04-13T17:30:11.541Z,46.44
2023-04-13T17:32:38.039Z,47.22
2023-04-13T17:35:05.392Z,49.41
2023-04-13T17:37:32.015Z,48.15
2023-04-13T17:39:59.456Z,48.34
2023-04-13T17:42:26.514Z,48.89
2023-04-13T17:44:53.216Z,49.29
2023-04-13T17:47:19.926Z,49.46
2023-04-13T17:49:46.380Z,49.25
2023-04-13T17:52:12.830Z,49.57
2023-04-13T17:54:40.495Z,51.31
2023-04-13T17:57:07.699Z,51.58
2023-04-13T17:59:34.205Z,51.57
2023-04-13T18:02:00.676Z,51.54
2023-04-13T18:04:27.432Z,52.38
2023-04-13T18:06:56.411Z,53.23
2023-04-13T18:09:24.816Z,52.47
2023-04-13T18:11:51.491Z,53.44
2023-04-13T18:14:18.064Z,53.41
2023-04-13T18:16:44.714Z,53.93
2023-04-13T18:19:11.281Z,53.16
2023-04-13T18:21:39.188Z,53.10
2023-04-13T18:24:05.942Z,52.81
2023-04-13T18:26:32.701Z,53.80
2023-04-13T18:28:59.400Z,55.13
2023-04-13T18:31:25.983Z,55.06
2023-04-13T18:33:52.600Z,53.87
2023-04-13T18:36:19.329Z,54.40
2023-04-13T18:38:46.181Z,54.59
2023-04-13T18:41:13.093Z,56.00
2023-04-13T18:43:39.659Z,56.10
2023-04-13T18:46:07.579Z,56.21
2023-04-13T18:48:34.293Z,56.54
2023-04-13T18:51:03.271Z,56.28
2023-04-13T18:53:30.339Z,56.42
2023-04-13T18:55:57.928Z,56.96
2023-04-13T18:58:24.514Z,56.20
2023-04-13T19:00:51.356Z,56.49
2023-04-13T19:03:17.905Z,56.28
2023-04-13T19:05:44.418Z,56.76
2023-04-13T19:08:13.497Z,57.28
2023-04-13T19:10:43.312Z,56.99
2023-04-13T19:13:10.138Z,57.06
2023-04-13T19:15:36.718Z,57.37
2023-04-13T19:18:07.644Z,57.90
2023-04-13T19:20:34.011Z,57.82
2023-04-13T19:23:00.533Z,57.85
2023-04-13T19:25:26.970Z,57.84
2023-04-13T19:27:53.640Z,58.35
2023-04-13T19:30:20.129Z,58.62
2023-04-13T19:32:48.462Z,58.55
2023-04-13T19:35:15.577Z,59.06
2023-04-13T19:37:42.394Z,59.33
2023-04-13T19:40:10.046Z,60.52
2023-04-13T19:42:37.205Z,60.38
2023-04-13T19:45:04.108Z,60.61
2023-04-13T19:47:31.528Z,60.23
2023-04-13T19:49:58.150Z,59.67
2023-04-13T19:52:25.250Z,59.41
2023-04-13T19:54:52.311Z,61.53
2023-04-13T19:57:18.818Z,60.74
2023-04-13T19:59:45.286Z,60.58
2023-04-13T20:02:11.711Z,61.16
2023-04-13T20:04:40.113Z,60.83
2023-04-13T20:07:06.856Z,61.28
2023-04-13T20:09:33.382Z,61.16
2023-04-13T20:11:59.822Z,61.59
2023-04-13T20:14:27.393Z,62.75
2023-04-13T20:16:53.840Z,63.16
2023-04-13T20:19:20.636Z,63.14
2023-04-13T20:21:47.880Z,63.30
2023-04-13T20:24:15.379Z,62.98
2023-04-13T20:26:43.498Z,63.17
2023-04-13T20:29:10.520Z,63.99
2023-04-13T20:31:37.237Z,63.07
2023-04-13T20:34:04.027Z,64.33
2023-04-13T20:36:31.284Z,64.45
2023-04-13T20:38:59.364Z,64.50
2023-04-13T20:41:27.093Z,64.62
2023-04-13T20:43:53.508Z,64.39
2023-04-13T20:46:25.391Z,64.62
2023-04-13T20:48:52.733Z,65.55
2023-04-13T20:51:23.304Z,65.51
2023-04-13T20:53:50.168Z,66.40
2023-04-13T20:56:19.019Z,67.15
2023-04-13T20:58:46.478Z,67.29
2023-04-13T21:01:13.117Z,66.76
2023-04-13T21:03:40.238Z,66.72
2023-04-13T21:06:07.727Z,67.16
2023-04-13T21:08:34.303Z,67.70
2023-04-13T21:11:01.127Z,67.85
2023-04-13T21:13:28.049Z,68.20
2023-04-13T21:15:54.622Z,68.26
2023-04-13T21:18:21.181Z,68.61
2023-04-13T21:20:47.591Z,67.97
2023-04-13T21:23:14.028Z,67.59
2023-04-13T21:25:41.873Z,66.97
2023-04-13T21:28:08.321Z,67.07
2023-04-13T21:30:34.842Z,68.10
2023-04-13T21:33:01.400Z,68.70
2023-04-13T21:35:29.265Z,67.39
2023-04-13T21:37:55.743Z,68.20
2023-04-13T21:40:24.122Z,68.08
2023-04-13T21:42:50.913Z,68.38
2023-04-13T21:45:17.348Z,67.96
2023-04-13T21:47:43.936Z,67.76
2023-04-13T21:50:10.599Z,68.72
2023-04-13T21:52:37.268Z,68.92
2023-04-13T21:55:04.320Z,68.47
2023-04-13T21:57:31.668Z,68.50
2023-04-13T21:59:58.099Z,68.16
2023-04-13T22:02:24.826Z,68.62
2023-04-13T22:04:51.540Z,69.04
2023-04-13T22:07:22.099Z,69.51
2023-04-13T22:09:52.389Z,70.34
2023-04-13T22:12:18.814Z,70.11
2023-04-13T22:14:45.310Z,70.37
2023-04-13T22:17:13.239Z,69.80
2023-04-13T22:19:40.980Z,69.45
2023-04-13T22:22:07.452Z,69.93
2023-04-13T22:24:33.980Z,71.06
2023-04-13T22:27:04.049Z,71.06
2023-04-13T22:29:30.938Z,70.62
2023-04-13T22:31:59.289Z,71.74
2023-04-13T22:34:29.051Z,71.80
2023-04-13T22:36:55.667Z,72.00
2023-04-13T22:39:22.210Z,71.53
2023-04-13T22:41:48.623Z,71.88
2023-04-13T22:44:15.009Z,72.27
2023-04-13T22:46:41.558Z,72.61
2023-04-13T22:49:08.845Z,72.84
2023-04-13T22:51:41.549Z,73.66
2023-04-13T22:54:07.985Z,73.56
2023-04-13T22:56:34.357Z,73.03
2023-04-13T22:59:01.217Z,73.38
2023-04-13T23:01:27.935Z,73.27
2023-04-13T23:03:55.591Z,73.04
2023-04-13T23:06:22.353Z,72.62
2023-04-13T23:08:48.800Z,72.46
2023-04-13T23:11:15.466Z,71.45
2023-04-13T23:13:43.270Z,71.96
2023-04-13T23:16:11.664Z,71.79
2023-04-13T23:18:38.341Z,71.94
2023-04-13T23:21:12.127Z,71.54
2023-04-13T23:23:39.789Z,71.16
2023-04-13T23:26:06.685Z,72.92
2023-04-13T23:28:33.438Z,73.08
2023-04-13T23:31:07.477Z,72.70
2023-04-13T23:33:34.589Z,73.20
2023-04-13T23:36:01.683Z,73.14
2023-04-13T23:38:28.663Z,73.27
2023-04-13T23:40:55.223Z,73.79
2023-04-13T23:43:22.676Z,72.70
2023-04-13T23:45:51.426Z,73.07
2023-04-13T23:48:18.863Z,73.90
2023-04-13T23:50:45.473Z,73.35
2023-04-13T23:53:12.104Z,73.60
2023-04-13T23:55:38.699Z,73.46
2023-04-13T23:58:05.344Z,72.68
